Ambulong, Philippines
Current Conditions -  °F | °C
As of 8:00 AM on Saturday 29 Nov 2014 (Local Time) from RPLL Reporting Station
Scattered Clouds Scattered Clouds  
Wind Chill: 82°   Ceiling: Unl
Heat Index: 92°   Visibility: 6mi
Dew Point: 79°   Wind: 5mph
Humidity: 89%   Direction: 80°E
Pressure: 29.88"   Gusts: NA
Location:  14.09°N, 121.06°E
Report Text: RPLL 290000Z 08004KT 040V130 9999 FEW025 SCT300 28/26 Q1012 NOSIG RMK A2988
Loading
Personal Weather Stations






























Interactive Weather Map New forecast layout! Learn more

10-Day Weather Forecast

Advertisements
Track Severe Weather on mobile